createdAt,value
2019-02-14T00:00:26.854Z,2.40
2019-02-14T00:02:56.019Z,2.40
2019-02-14T00:05:25.343Z,2.40
2019-02-14T00:07:54.566Z,2.30
2019-02-14T00:10:23.743Z,2.30
2019-02-14T00:12:52.971Z,2.30
2019-02-14T00:15:22.226Z,2.40
2019-02-14T00:17:51.438Z,2.30
2019-02-14T00:20:20.688Z,2.30
2019-02-14T00:22:49.928Z,2.20
2019-02-14T00:25:19.214Z,2.10
2019-02-14T00:27:48.531Z,2.20
2019-02-14T00:30:17.783Z,2.20
2019-02-14T00:32:47.026Z,2.10
2019-02-14T00:35:23.403Z,2.10
2019-02-14T00:37:47.154Z,2.10
2019-02-14T00:40:16.406Z,2.10
2019-02-14T00:42:45.553Z,2.10
2019-02-14T00:45:14.814Z,2.10
2019-02-14T00:47:44.030Z,2.10
2019-02-14T00:50:13.295Z,2.00
2019-02-14T00:52:42.475Z,2.00
2019-02-14T00:55:11.742Z,2.00
2019-02-14T00:57:41.074Z,2.00
2019-02-14T01:00:10.854Z,2.00
2019-02-14T01:02:40.050Z,2.00
2019-02-14T01:05:09.300Z,1.90
2019-02-14T01:07:38.476Z,1.90
2019-02-14T01:10:07.699Z,2.00
2019-02-14T01:12:36.953Z,2.00
2019-02-14T01:15:07.771Z,2.00
2019-02-14T01:17:37.059Z,2.00
2019-02-14T01:20:06.770Z,2.00
2019-02-14T01:22:35.953Z,2.00
2019-02-14T01:25:05.575Z,2.00
2019-02-14T01:27:34.759Z,1.90
2019-02-14T01:30:04.003Z,1.90
2019-02-14T01:32:33.287Z,1.90
2019-02-14T01:35:02.513Z,1.80
2019-02-14T01:37:31.687Z,1.80
2019-02-14T01:40:00.916Z,1.80
2019-02-14T01:42:30.090Z,1.80
2019-02-14T01:44:59.313Z,1.80
2019-02-14T01:47:28.571Z,1.80
2019-02-14T01:49:57.796Z,1.80
2019-02-14T01:52:26.971Z,1.80
2019-02-14T01:54:56.207Z,1.80
2019-02-14T01:57:25.470Z,1.70
2019-02-14T01:59:54.688Z,1.70
2019-02-14T02:02:23.931Z,1.60
2019-02-14T02:04:53.255Z,1.70
2019-02-14T02:07:22.443Z,1.60
2019-02-14T02:09:51.702Z,1.60
2019-02-14T02:12:21.004Z,1.60
2019-02-14T02:14:50.184Z,1.70
2019-02-14T02:17:19.340Z,1.70
2019-02-14T02:19:48.595Z,1.60
2019-02-14T02:22:17.754Z,1.60
2019-02-14T02:24:46.931Z,1.60
2019-02-14T02:27:16.083Z,1.60
2019-02-14T02:29:45.284Z,1.60
2019-02-14T02:32:14.463Z,1.60
2019-02-14T02:34:43.716Z,1.60
2019-02-14T02:37:12.868Z,1.60
2019-02-14T02:39:42.188Z,1.60
2019-02-14T02:42:11.417Z,1.60
2019-02-14T02:44:40.875Z,1.50
2019-02-14T02:47:10.067Z,1.50
2019-02-14T02:49:39.248Z,1.60
2019-02-14T02:52:08.481Z,1.50
2019-02-14T02:54:37.739Z,1.50
2019-02-14T02:57:07.012Z,1.50
2019-02-14T02:59:36.273Z,1.50
2019-02-14T03:02:05.433Z,1.50
2019-02-14T03:04:34.761Z,1.50
2019-02-14T03:07:03.993Z,1.50
2019-02-14T03:09:33.151Z,1.50
2019-02-14T03:12:02.412Z,1.50
2019-02-14T03:14:31.563Z,1.50
2019-02-14T03:17:00.772Z,1.50
2019-02-14T03:19:30.002Z,1.50
2019-02-14T03:21:59.272Z,1.50
2019-02-14T03:24:28.499Z,1.40
2019-02-14T03:26:57.760Z,1.40
2019-02-14T03:29:26.929Z,1.40
2019-02-14T03:31:56.293Z,1.30
2019-02-14T03:34:25.481Z,1.30
2019-02-14T03:36:54.731Z,1.30
2019-02-14T03:39:23.959Z,1.30
2019-02-14T03:41:53.146Z,1.30
2019-02-14T03:44:22.378Z,1.30
2019-02-14T03:46:51.644Z,1.20
2019-02-14T03:49:20.870Z,1.20
2019-02-14T03:51:50.128Z,1.20
2019-02-14T03:54:19.307Z,1.20
2019-02-14T03:56:48.679Z,1.10
2019-02-14T03:59:17.922Z,1.10
2019-02-14T04:01:47.164Z,1.10
2019-02-14T04:04:16.314Z,1.10
2019-02-14T04:06:45.540Z,1.10
2019-02-14T04:09:14.784Z,1.10
2019-02-14T04:11:44.084Z,1.10
2019-02-14T04:14:13.321Z,1.10
2019-02-14T04:16:42.679Z,1.10
2019-02-14T04:19:11.840Z,1.00
2019-02-14T04:21:41.075Z,1.00
2019-02-14T04:24:10.258Z,1.10
2019-02-14T04:26:39.572Z,1.10
2019-02-14T04:29:08.828Z,1.00
2019-02-14T04:31:37.987Z,1.00
2019-02-14T04:34:07.284Z,1.00
2019-02-14T04:36:36.599Z,1.00
2019-02-14T04:39:07.587Z,1.00
2019-02-14T04:41:36.755Z,1.00
2019-02-14T04:44:06.005Z,1.00
2019-02-14T04:46:35.239Z,1.00
2019-02-14T04:49:04.575Z,1.00
2019-02-14T04:51:33.805Z,1.00
2019-02-14T04:54:03.065Z,0.90
2019-02-14T04:56:32.375Z,0.90
2019-02-14T04:59:01.592Z,0.90
2019-02-14T05:01:30.903Z,0.90
2019-02-14T05:04:00.092Z,0.90
2019-02-14T05:06:29.348Z,0.80
2019-02-14T05:08:58.628Z,0.90
2019-02-14T05:11:27.863Z,0.80
2019-02-14T05:13:57.047Z,0.80
2019-02-14T05:16:26.284Z,0.80
2019-02-14T05:18:55.539Z,0.80
2019-02-14T05:21:24.694Z,0.80
2019-02-14T05:23:53.962Z,0.80
2019-02-14T05:26:23.191Z,0.80
2019-02-14T05:28:52.463Z,0.80
2019-02-14T05:31:21.771Z,0.80
2019-02-14T05:33:51.049Z,0.80
2019-02-14T05:36:20.311Z,0.80
2019-02-14T05:38:49.468Z,0.80
2019-02-14T05:41:18.728Z,0.80
2019-02-14T05:43:47.899Z,0.80
2019-02-14T05:46:17.097Z,0.80
2019-02-14T05:48:46.263Z,0.80
2019-02-14T05:51:15.520Z,0.80
2019-02-14T05:53:44.749Z,0.80
2019-02-14T05:56:14.020Z,0.80
2019-02-14T05:58:43.258Z,0.80
2019-02-14T06:01:14.667Z,0.70
2019-02-14T06:03:43.903Z,0.80
2019-02-14T06:06:13.096Z,0.80
2019-02-14T06:08:42.260Z,0.80
2019-02-14T06:11:11.576Z,0.80
2019-02-14T06:13:40.815Z,0.80
2019-02-14T06:16:09.988Z,0.80
2019-02-14T06:18:39.224Z,0.80
2019-02-14T06:21:08.559Z,0.80
2019-02-14T06:23:37.714Z,0.80
2019-02-14T06:26:06.975Z,0.70
2019-02-14T06:28:37.306Z,0.70
2019-02-14T06:31:06.735Z,0.70
2019-02-14T06:33:35.994Z,0.80
2019-02-14T06:36:05.253Z,0.80
2019-02-14T06:38:34.430Z,0.80
2019-02-14T06:41:03.776Z,0.80
2019-02-14T06:43:33.114Z,0.80
2019-02-14T06:46:02.431Z,0.80
2019-02-14T06:48:31.623Z,0.80
2019-02-14T06:51:00.860Z,0.80
2019-02-14T06:53:30.060Z,0.90
2019-02-14T06:55:59.252Z,0.90
2019-02-14T06:58:28.509Z,0.90
2019-02-14T07:00:57.754Z,1.00
2019-02-14T07:03:26.945Z,1.00
2019-02-14T07:05:56.181Z,1.00
2019-02-14T07:08:25.515Z,1.00
2019-02-14T07:10:54.683Z,1.10
2019-02-14T07:13:23.947Z,1.10
2019-02-14T07:15:53.104Z,1.10
2019-02-14T07:18:22.291Z,1.10
2019-02-14T07:20:51.586Z,1.30
2019-02-14T07:23:20.851Z,1.60
2019-02-14T07:25:50.078Z,1.70
2019-02-14T07:28:19.340Z,1.70
2019-02-14T07:30:48.531Z,1.70
2019-02-14T07:33:17.922Z,1.60
2019-02-14T07:35:47.074Z,1.60
2019-02-14T07:38:16.280Z,1.50
2019-02-14T07:40:45.522Z,1.50
2019-02-14T07:43:14.837Z,1.50
2019-02-14T07:45:44.067Z,1.60
2019-02-14T07:48:13.251Z,1.60
2019-02-14T07:50:42.496Z,1.70
2019-02-14T07:53:11.751Z,1.60
2019-02-14T07:55:41.020Z,1.60
2019-02-14T07:58:10.255Z,1.60
2019-02-14T08:00:39.523Z,1.60
2019-02-14T08:03:08.746Z,1.70
2019-02-14T08:05:38.008Z,1.70
2019-02-14T08:08:07.248Z,1.70
2019-02-14T08:10:36.519Z,1.80
2019-02-14T08:13:05.759Z,1.80
2019-02-14T08:15:34.943Z,1.90
2019-02-14T08:18:04.447Z,1.90
2019-02-14T08:20:33.639Z,1.90
2019-02-14T08:23:02.949Z,2.00
2019-02-14T08:25:32.167Z,2.10
2019-02-14T08:28:01.402Z,2.10
2019-02-14T08:30:30.665Z,2.20
2019-02-14T08:32:59.966Z,2.20
2019-02-14T08:35:29.175Z,2.40
2019-02-14T08:37:58.404Z,2.50
2019-02-14T08:40:27.684Z,2.50
2019-02-14T08:42:58.532Z,2.50
2019-02-14T08:45:28.175Z,2.60
2019-02-14T08:47:57.406Z,2.60
2019-02-14T08:50:26.665Z,2.70
2019-02-14T08:52:55.954Z,2.80
2019-02-14T08:55:25.188Z,2.90
2019-02-14T08:57:54.365Z,3.00
2019-02-14T09:00:23.633Z,3.00
2019-02-14T09:02:52.817Z,3.00
2019-02-14T09:05:22.128Z,2.90
2019-02-14T09:07:54.755Z,3.00
2019-02-14T09:10:22.351Z,3.10
2019-02-14T09:12:51.535Z,3.30
2019-02-14T09:15:20.696Z,3.40
2019-02-14T09:17:49.953Z,3.60
2019-02-14T09:20:19.216Z,3.70
2019-02-14T09:22:48.557Z,3.80
2019-02-14T09:25:18.324Z,4.00
2019-02-14T09:27:47.675Z,4.10
2019-02-14T09:30:16.912Z,4.10
2019-02-14T09:32:46.300Z,4.10
2019-02-14T09:35:15.528Z,4.10
2019-02-14T09:37:44.796Z,4.10
2019-02-14T09:40:14.123Z,4.10
2019-02-14T09:42:43.440Z,4.20
2019-02-14T09:45:13.304Z,4.30
2019-02-14T09:47:42.592Z,4.40
2019-02-14T09:50:12.230Z,4.40
2019-02-14T09:52:42.061Z,4.60
2019-02-14T09:55:12.016Z,4.70
2019-02-14T09:57:41.329Z,4.80
2019-02-14T10:00:13.433Z,5.00
2019-02-14T10:02:42.682Z,5.00
2019-02-14T10:05:12.070Z,5.10
2019-02-14T10:07:41.351Z,5.20
2019-02-14T10:10:13.286Z,5.20
2019-02-14T10:12:42.446Z,5.30
2019-02-14T10:15:11.926Z,5.30
2019-02-14T10:17:41.222Z,5.30
2019-02-14T10:20:12.544Z,5.40
2019-02-14T10:22:41.776Z,5.50
2019-02-14T10:25:11.335Z,5.60
2019-02-14T10:27:40.584Z,5.60
2019-02-14T10:30:14.915Z,5.80
2019-02-14T10:32:44.075Z,5.90
2019-02-14T10:35:13.287Z,6.00
2019-02-14T10:37:42.443Z,6.10
2019-02-14T10:40:12.843Z,6.10
2019-02-14T10:42:42.003Z,6.10
2019-02-14T10:45:13.512Z,6.10
2019-02-14T10:47:42.777Z,6.20
2019-02-14T10:50:12.318Z,6.30
2019-02-14T10:52:41.492Z,6.40
2019-02-14T10:55:11.553Z,6.40
2019-02-14T10:57:40.740Z,6.40
2019-02-14T11:00:16.964Z,6.40
2019-02-14T11:02:46.790Z,6.40
2019-02-14T11:05:16.666Z,6.40
2019-02-14T11:07:45.891Z,6.50
2019-02-14T11:10:15.296Z,6.50
2019-02-14T11:12:44.628Z,6.60
2019-02-14T11:15:15.204Z,6.60
2019-02-14T11:17:44.476Z,6.70
2019-02-14T11:20:14.297Z,6.90
2019-02-14T11:22:43.623Z,7.00
2019-02-14T11:25:15.695Z,7.10
2019-02-14T11:27:44.883Z,7.30
2019-02-14T11:30:14.402Z,7.40
2019-02-14T11:32:43.588Z,7.50
2019-02-14T11:35:13.083Z,7.70
2019-02-14T11:37:42.344Z,7.80
2019-02-14T11:40:12.272Z,7.90
2019-02-14T11:42:41.464Z,8.00
2019-02-14T11:45:12.848Z,7.90
2019-02-14T11:47:42.030Z,7.90
2019-02-14T11:50:11.559Z,7.90
2019-02-14T11:52:40.905Z,8.00
2019-02-14T11:55:10.253Z,8.00
2019-02-14T11:57:39.506Z,8.00
2019-02-14T12:00:15.735Z,8.10
2019-02-14T12:02:44.933Z,8.10
2019-02-14T12:05:14.239Z,8.10
2019-02-14T12:07:43.473Z,8.20
2019-02-14T12:10:13.846Z,8.20
2019-02-14T12:12:43.300Z,8.20
2019-02-14T12:15:12.849Z,8.20
2019-02-14T12:17:42.923Z,8.20
2019-02-14T12:20:12.748Z,8.20
2019-02-14T12:22:46.750Z,8.30
2019-02-14T12:25:13.924Z,8.30
2019-02-14T12:27:43.089Z,8.30
2019-02-14T12:30:14.387Z,8.40
2019-02-14T12:32:43.646Z,8.40
2019-02-14T12:35:12.999Z,8.30
2019-02-14T12:37:42.299Z,8.30
2019-02-14T12:40:11.890Z,8.30
2019-02-14T12:42:41.042Z,8.30
2019-02-14T12:45:20.413Z,8.30
2019-02-14T12:47:42.851Z,8.30
2019-02-14T12:50:12.116Z,8.30
2019-02-14T12:52:41.377Z,8.30
2019-02-14T12:55:10.554Z,8.30
2019-02-14T12:57:39.711Z,8.30
2019-02-14T13:00:13.869Z,8.30
2019-02-14T13:02:43.099Z,8.30
2019-02-14T13:05:12.353Z,8.40
2019-02-14T13:07:41.606Z,8.40
2019-02-14T13:10:11.556Z,8.40
2019-02-14T13:12:40.858Z,8.40
2019-02-14T13:15:12.528Z,8.40
2019-02-14T13:17:41.686Z,8.40
2019-02-14T13:20:11.028Z,8.40
2019-02-14T13:22:40.285Z,8.40
2019-02-14T13:25:10.583Z,8.40
2019-02-14T13:27:39.845Z,8.40
2019-02-14T13:30:11.982Z,8.40
2019-02-14T13:32:41.261Z,8.50
2019-02-14T13:35:10.523Z,8.50
2019-02-14T13:37:40.499Z,8.50
2019-02-14T13:40:09.938Z,8.50
2019-02-14T13:42:39.196Z,8.60
2019-02-14T13:45:10.949Z,8.60
2019-02-14T13:47:40.274Z,8.60
2019-02-14T13:50:10.471Z,8.70
2019-02-14T13:52:39.756Z,8.70
2019-02-14T13:55:09.175Z,8.70
2019-02-14T13:57:38.358Z,8.80
2019-02-14T14:00:11.119Z,8.70
2019-02-14T14:02:40.314Z,8.70
2019-02-14T14:05:09.628Z,8.70
2019-02-14T14:07:40.660Z,8.80
2019-02-14T14:10:10.282Z,8.70
2019-02-14T14:12:39.813Z,8.80
2019-02-14T14:15:09.288Z,8.70
2019-02-14T14:17:38.512Z,8.80
2019-02-14T14:20:08.126Z,8.80
2019-02-14T14:22:37.431Z,8.80
2019-02-14T14:25:06.806Z,8.80
2019-02-14T14:27:36.022Z,8.80
2019-02-14T14:30:06.128Z,8.80
2019-02-14T14:32:35.368Z,8.80
2019-02-14T14:35:05.248Z,8.80
2019-02-14T14:37:34.490Z,8.80
2019-02-14T14:40:03.961Z,8.80
2019-02-14T14:42:55.152Z,8.70
2019-02-14T14:45:34.139Z,8.70
2019-02-14T14:48:03.368Z,8.80
2019-02-14T14:50:32.632Z,8.80
2019-02-14T14:53:01.779Z,8.80
2019-02-14T14:55:30.987Z,8.80
2019-02-14T14:58:00.206Z,8.70
2019-02-14T15:00:29.467Z,8.70
2019-02-14T15:02:58.687Z,8.70
2019-02-14T15:05:27.959Z,8.70
2019-02-14T15:07:57.139Z,8.70
2019-02-14T15:10:26.452Z,8.70
2019-02-14T15:12:55.604Z,8.70
2019-02-14T15:15:24.861Z,8.70
2019-02-14T15:17:54.008Z,8.70
2019-02-14T15:20:23.268Z,8.70
2019-02-14T15:22:52.414Z,8.70
2019-02-14T15:25:21.672Z,8.60
2019-02-14T15:27:50.903Z,8.60
2019-02-14T15:30:20.055Z,8.60
2019-02-14T15:32:49.315Z,8.50
2019-02-14T15:35:18.528Z,8.50
2019-02-14T15:37:47.711Z,8.50
2019-02-14T15:40:16.943Z,8.40
2019-02-14T15:42:46.194Z,8.40
2019-02-14T15:45:15.455Z,8.40
2019-02-14T15:47:44.716Z,8.30
2019-02-14T15:50:13.871Z,8.30
2019-02-14T15:52:43.061Z,8.30
2019-02-14T15:55:12.355Z,8.20
2019-02-14T15:57:42.899Z,8.20
2019-02-14T16:00:12.741Z,8.20
2019-02-14T16:02:42.050Z,8.20
2019-02-14T16:05:11.270Z,8.10
2019-02-14T16:07:41.439Z,8.00
2019-02-14T16:10:18.057Z,8.00
2019-02-14T16:12:45.280Z,7.90
2019-02-14T16:15:12.699Z,7.80
2019-02-14T16:17:42.028Z,7.80
2019-02-14T16:20:11.455Z,7.70
2019-02-14T16:22:42.397Z,7.70
2019-02-14T16:25:11.599Z,7.60
2019-02-14T16:27:40.779Z,7.50
2019-02-14T16:30:10.952Z,7.40
2019-02-14T16:32:40.228Z,7.30
2019-02-14T16:35:09.415Z,7.20
2019-02-14T16:37:38.604Z,7.10
2019-02-14T16:40:08.562Z,7.00
2019-02-14T16:42:37.719Z,7.00
2019-02-14T16:45:07.284Z,6.90
2019-02-14T16:47:36.451Z,6.80
2019-02-14T16:50:06.500Z,6.70
2019-02-14T16:52:35.740Z,6.60
2019-02-14T16:55:04.941Z,6.60
2019-02-14T16:57:34.091Z,6.50
2019-02-14T17:00:03.358Z,6.50
2019-02-14T17:02:32.580Z,6.40
2019-02-14T17:05:01.800Z,6.40
2019-02-14T17:07:31.024Z,6.30
2019-02-14T17:10:00.214Z,6.30
2019-02-14T17:12:29.426Z,6.20
2019-02-14T17:14:58.692Z,6.10
2019-02-14T17:17:28.196Z,6.10
2019-02-14T17:19:57.552Z,6.10
2019-02-14T17:22:26.810Z,6.00
2019-02-14T17:24:56.111Z,6.00
2019-02-14T17:27:25.283Z,5.90
2019-02-14T17:29:54.459Z,5.80
2019-02-14T17:32:23.682Z,5.80
2019-02-14T17:34:52.964Z,5.70
2019-02-14T17:37:22.195Z,5.70
2019-02-14T17:39:51.453Z,5.60
2019-02-14T17:42:20.753Z,5.60
2019-02-14T17:44:49.996Z,5.50
2019-02-14T17:47:19.220Z,5.40
2019-02-14T17:49:48.543Z,5.40
2019-02-14T17:52:17.774Z,5.30
2019-02-14T17:54:47.401Z,5.30
2019-02-14T17:57:16.628Z,5.20
2019-02-14T17:59:45.866Z,5.10
2019-02-14T18:02:16.913Z,5.10
2019-02-14T18:04:46.139Z,5.00
2019-02-14T18:07:15.400Z,4.90
2019-02-14T18:09:44.628Z,4.80
2019-02-14T18:12:13.895Z,4.80
2019-02-14T18:14:43.125Z,4.80
2019-02-14T18:17:12.455Z,4.70
2019-02-14T18:19:41.751Z,4.70
2019-02-14T18:22:11.046Z,4.60
2019-02-14T18:24:40.290Z,4.60
2019-02-14T18:27:09.552Z,4.60
2019-02-14T18:29:38.875Z,4.50
2019-02-14T18:32:08.138Z,4.50
2019-02-14T18:34:37.306Z,4.50
2019-02-14T18:37:06.489Z,4.40
2019-02-14T18:39:35.659Z,4.30
2019-02-14T18:42:04.983Z,4.20
2019-02-14T18:44:34.141Z,4.20
2019-02-14T18:47:03.401Z,4.10
2019-02-14T18:49:32.754Z,4.10
2019-02-14T18:52:01.931Z,4.00
2019-02-14T18:54:31.088Z,4.00
2019-02-14T18:57:00.280Z,3.90
2019-02-14T18:59:29.622Z,3.90
2019-02-14T19:01:58.868Z,3.90
2019-02-14T19:04:28.155Z,3.90
2019-02-14T19:06:57.384Z,3.80
2019-02-14T19:09:26.607Z,3.80
2019-02-14T19:11:55.757Z,3.80
2019-02-14T19:14:25.008Z,3.80
2019-02-14T19:16:54.172Z,3.80
2019-02-14T19:19:23.491Z,3.80
2019-02-14T19:21:52.715Z,3.70
2019-02-14T19:24:21.979Z,3.70
2019-02-14T19:26:51.315Z,3.60
2019-02-14T19:29:20.496Z,3.60
2019-02-14T19:31:49.720Z,3.60
2019-02-14T19:34:19.003Z,3.50
2019-02-14T19:36:48.275Z,3.50
2019-02-14T19:39:17.525Z,3.50
2019-02-14T19:41:46.684Z,3.40
2019-02-14T19:44:15.864Z,3.40
2019-02-14T19:46:45.096Z,3.30
2019-02-14T19:49:14.419Z,3.30
2019-02-14T19:51:43.595Z,3.30
2019-02-14T19:54:12.910Z,3.20
2019-02-14T19:56:42.058Z,3.20
2019-02-14T19:59:11.302Z,3.20
2019-02-14T20:01:40.635Z,3.10
2019-02-14T20:04:09.824Z,3.20
2019-02-14T20:06:38.980Z,3.20
2019-02-14T20:09:08.180Z,3.10
2019-02-14T20:11:37.673Z,3.10
2019-02-14T20:14:07.001Z,3.00
2019-02-14T20:16:36.316Z,3.00
2019-02-14T20:19:05.468Z,3.00
2019-02-14T20:21:34.646Z,3.00
2019-02-14T20:24:03.884Z,3.00
2019-02-14T20:26:33.142Z,3.10
2019-02-14T20:29:02.363Z,3.10
2019-02-14T20:31:31.579Z,3.10
2019-02-14T20:34:00.841Z,3.10
2019-02-14T20:36:30.018Z,3.10
2019-02-14T20:38:59.317Z,3.00
2019-02-14T20:41:28.586Z,3.00
2019-02-14T20:43:57.823Z,3.00
2019-02-14T20:46:27.148Z,2.90
2019-02-14T20:48:56.503Z,3.00
2019-02-14T20:51:25.835Z,3.00
2019-02-14T20:53:55.233Z,2.90
2019-02-14T20:56:24.648Z,2.90
2019-02-14T20:58:54.523Z,2.90
2019-02-14T21:01:23.875Z,2.90
2019-02-14T21:03:53.127Z,2.90
2019-02-14T21:06:22.352Z,2.90
2019-02-14T21:08:51.610Z,2.90
2019-02-14T21:11:20.913Z,2.90
2019-02-14T21:13:50.176Z,2.90
2019-02-14T21:16:19.395Z,2.80
2019-02-14T21:18:49.740Z,2.80
2019-02-14T21:21:19.107Z,2.80
2019-02-14T21:23:48.366Z,2.70
2019-02-14T21:26:17.704Z,2.70
2019-02-14T21:28:47.051Z,2.70
2019-02-14T21:31:16.345Z,2.70
2019-02-14T21:33:45.622Z,2.70
2019-02-14T21:36:14.950Z,2.70
2019-02-14T21:38:44.394Z,2.70
2019-02-14T21:41:13.832Z,2.60
2019-02-14T21:43:43.003Z,2.60
2019-02-14T21:46:12.317Z,2.50
2019-02-14T21:48:41.662Z,2.50
2019-02-14T21:51:10.896Z,2.50
2019-02-14T21:53:40.153Z,2.50
2019-02-14T21:56:09.448Z,2.50
2019-02-14T21:58:38.631Z,2.50
2019-02-14T22:01:08.370Z,2.50
2019-02-14T22:03:37.702Z,2.50
2019-02-14T22:06:06.929Z,2.50
2019-02-14T22:08:36.085Z,2.50
2019-02-14T22:11:05.520Z,2.40
2019-02-14T22:13:34.757Z,2.50
2019-02-14T22:16:04.800Z,2.50
2019-02-14T22:18:34.038Z,2.50
2019-02-14T22:21:03.307Z,2.50
2019-02-14T22:23:32.762Z,2.40
2019-02-14T22:26:02.005Z,2.40
2019-02-14T22:28:31.320Z,2.30
2019-02-14T22:31:00.508Z,2.30
2019-02-14T22:33:29.765Z,2.30
2019-02-14T22:35:59.094Z,2.30
2019-02-14T22:38:28.314Z,2.30
2019-02-14T22:40:57.567Z,2.30
2019-02-14T22:43:26.802Z,2.20
2019-02-14T22:45:55.999Z,2.20
2019-02-14T22:48:25.291Z,2.20
2019-02-14T22:50:54.556Z,2.20
2019-02-14T22:53:23.819Z,2.20
2019-02-14T22:55:53.063Z,2.20
2019-02-14T22:58:22.378Z,2.20
2019-02-14T23:00:58.721Z,2.20
2019-02-14T23:03:27.976Z,2.10
2019-02-14T23:05:57.204Z,2.20
2019-02-14T23:08:26.537Z,2.10
2019-02-14T23:10:55.752Z,2.10
2019-02-14T23:13:25.003Z,2.10
2019-02-14T23:15:54.150Z,2.10
2019-02-14T23:18:23.336Z,2.10
2019-02-14T23:20:52.683Z,2.00
2019-02-14T23:23:21.936Z,2.00
2019-02-14T23:25:51.167Z,2.00
2019-02-14T23:28:20.430Z,2.00
2019-02-14T23:30:49.696Z,2.00
2019-02-14T23:33:18.884Z,2.00
2019-02-14T23:35:48.054Z,2.00
2019-02-14T23:38:17.312Z,2.00
2019-02-14T23:40:46.455Z,1.90
2019-02-14T23:43:15.712Z,1.90
2019-02-14T23:45:44.871Z,1.90
2019-02-14T23:48:14.045Z,1.90
2019-02-14T23:50:43.194Z,1.90
2019-02-14T23:53:12.374Z,1.90
2019-02-14T23:55:41.619Z,1.90
2019-02-14T23:58:10.771Z,1.90
